Currently 73°F in Simi Valley, California, USA
73°F
73°F / 72°F
1 mph NW
0.00"
Wednesday, August 17, 2022 12:51 AM PDT

Simi Valley, California Climate Summary
Typical June Day

Normal High:    81.9°F (27.7°C)
Normal Low:    57.7°F (14.3°C)
Average:    69.3°F (20.7°C)

Hour    Temperature    Wind Speed    Humidity
12:00 AM    63°F (17°C)    2 mph    70%
1:00 AM    62°F (17°C)    2 mph    71%
2:00 AM    61°F (16°C)    2 mph    73%
3:00 AM    60°F (16°C)    1 mph    74%
4:00 AM    60°F (15°C)    1 mph    75%
5:00 AM    59°F (15°C)    1 mph    76%
6:00 AM    59°F (15°C)    2 mph    77%
7:00 AM    60°F (15°C)    1 mph    78%
8:00 AM    64°F (18°C)    2 mph    75%
9:00 AM    67°F (20°C)    2 mph    69%
10:00 AM    71°F (22°C)    3 mph    61%
11:00 AM    75°F (24°C)    4 mph    54%
12:00 PM    78°F (26°C)    5 mph    50%
1:00 PM    80°F (26°C)    7 mph    48%
2:00 PM    80°F (27°C)    7 mph    47%
3:00 PM    80°F (27°C)    7 mph    46%
4:00 PM    80°F (26°C)    7 mph    47%
5:00 PM    79°F (26°C)    7 mph    48%
6:00 PM    78°F (25°C)    6 mph    49%
7:00 PM    75°F (24°C)    5 mph    53%
8:00 PM    71°F (22°C)    4 mph    59%
9:00 PM    68°F (20°C)    2 mph    65%
10:00 PM    66°F (19°C)    2 mph    67%
11:00 PM    65°F (18°C)    2 mph    69%
 

The Simi Valley, California weather pages are a service of WeatherCurrents.
Copyright ©2022  WeatherCurrents. All rights reserved. - Submit questions and comments - Privacy Policy